createdAt,value
2022-11-14T00:00:20.142Z,2.77
2022-11-14T00:03:12.215Z,2.77
2022-11-14T00:06:05.857Z,2.76
2022-11-14T00:08:57.069Z,2.74
2022-11-14T00:11:48.096Z,2.73
2022-11-14T00:14:39.758Z,2.76
2022-11-14T00:17:30.956Z,2.69
2022-11-14T00:20:22.146Z,2.69
2022-11-14T00:23:13.221Z,2.70
2022-11-14T00:26:04.466Z,2.66
2022-11-14T00:28:55.753Z,2.70
2022-11-14T00:31:47.555Z,2.75
2022-11-14T00:34:38.353Z,2.78
2022-11-14T00:37:29.439Z,2.81
2022-11-14T00:40:20.478Z,2.78
2022-11-14T00:43:11.592Z,2.78
2022-11-14T00:46:02.609Z,2.76
2022-11-14T00:48:54.147Z,2.73
2022-11-14T00:51:45.303Z,2.72
2022-11-14T00:54:36.149Z,2.68
2022-11-14T00:57:27.196Z,2.66
2022-11-14T01:00:18.329Z,2.66
2022-11-14T01:03:09.020Z,2.68
2022-11-14T01:06:04.555Z,2.64
2022-11-14T01:08:55.652Z,2.66
2022-11-14T01:11:46.523Z,2.63
2022-11-14T01:14:37.385Z,2.67
2022-11-14T01:17:28.359Z,2.61
2022-11-14T01:20:20.092Z,2.61
2022-11-14T01:23:13.939Z,2.67
2022-11-14T01:26:07.657Z,2.70
2022-11-14T01:28:58.370Z,2.61
2022-11-14T01:31:49.231Z,2.49
2022-11-14T01:34:40.149Z,2.56
2022-11-14T01:37:31.102Z,2.53
2022-11-14T01:40:23.048Z,2.55
2022-11-14T01:43:35.465Z,2.59
2022-11-14T01:46:30.498Z,2.66
2022-11-14T01:49:25.308Z,2.59
2022-11-14T01:52:19.631Z,2.56
2022-11-14T01:55:10.994Z,2.60
2022-11-14T01:58:02.452Z,2.53
2022-11-14T02:00:53.457Z,2.50
2022-11-14T02:03:49.131Z,2.51
2022-11-14T02:06:40.529Z,2.50
2022-11-14T02:09:35.162Z,2.52
2022-11-14T02:12:26.155Z,2.50
2022-11-14T02:15:17.881Z,2.47
2022-11-14T02:18:08.875Z,2.43
2022-11-14T02:21:00.414Z,2.38
2022-11-14T02:23:51.485Z,2.44
2022-11-14T02:26:42.940Z,2.48
2022-11-14T02:29:35.230Z,2.49
2022-11-14T02:32:26.094Z,2.54
2022-11-14T02:35:17.195Z,2.48
2022-11-14T02:38:09.134Z,2.48
2022-11-14T02:41:00.107Z,2.53
2022-11-14T02:43:50.998Z,2.53
2022-11-14T02:46:42.108Z,2.46
2022-11-14T02:49:33.090Z,2.42
2022-11-14T02:52:24.022Z,2.41
2022-11-14T02:55:16.023Z,2.41
2022-11-14T02:58:07.303Z,2.41
2022-11-14T03:01:19.703Z,2.39
2022-11-14T03:04:10.174Z,2.44
2022-11-14T03:07:00.868Z,2.42
2022-11-14T03:09:51.847Z,2.35
2022-11-14T03:12:43.773Z,2.36
2022-11-14T03:15:37.178Z,2.38
2022-11-14T03:18:28.656Z,2.38
2022-11-14T03:21:21.821Z,2.33
2022-11-14T03:24:12.606Z,2.35
2022-11-14T03:27:03.679Z,2.34
2022-11-14T03:29:55.295Z,2.32
2022-11-14T03:32:46.041Z,2.35
2022-11-14T03:35:41.489Z,2.33
2022-11-14T03:38:33.366Z,2.30
2022-11-14T03:41:24.453Z,2.34
2022-11-14T03:44:15.403Z,2.26
2022-11-14T03:47:07.235Z,2.12
2022-11-14T03:49:58.415Z,2.26
2022-11-14T03:52:49.910Z,2.27
2022-11-14T03:55:43.011Z,2.30
2022-11-14T03:58:33.626Z,2.28
2022-11-14T04:01:24.788Z,2.28
2022-11-14T04:04:16.397Z,2.28
2022-11-14T04:07:07.443Z,2.27
2022-11-14T04:09:58.397Z,2.25
2022-11-14T04:12:50.753Z,2.28
2022-11-14T04:15:41.610Z,2.24
2022-11-14T04:18:32.890Z,2.20
2022-11-14T04:21:24.822Z,2.14
2022-11-14T04:24:15.466Z,2.12
2022-11-14T04:27:06.369Z,2.11
2022-11-14T04:29:57.293Z,2.20
2022-11-14T04:32:48.531Z,2.17
2022-11-14T04:35:39.774Z,2.14
2022-11-14T04:38:31.731Z,2.10
2022-11-14T04:41:23.115Z,2.12
2022-11-14T04:44:13.982Z,2.08
2022-11-14T04:47:05.092Z,2.08
2022-11-14T04:49:56.117Z,2.07
2022-11-14T04:52:47.150Z,2.11
2022-11-14T04:55:39.399Z,2.08
2022-11-14T04:58:30.344Z,2.06
2022-11-14T05:01:21.731Z,2.06
2022-11-14T05:04:12.686Z,2.03
2022-11-14T05:07:04.004Z,1.97
2022-11-14T05:09:55.347Z,1.94
2022-11-14T05:12:47.078Z,1.96
2022-11-14T05:15:38.095Z,1.96
2022-11-14T05:18:29.517Z,1.96
2022-11-14T05:21:20.717Z,1.95
2022-11-14T05:24:11.462Z,1.96
2022-11-14T05:27:02.576Z,1.93
2022-11-14T05:29:54.689Z,1.95
2022-11-14T05:32:45.536Z,1.99
2022-11-14T05:35:36.405Z,2.01
2022-11-14T05:38:27.474Z,2.02
2022-11-14T05:41:19.789Z,1.89
2022-11-14T05:44:10.814Z,2.03
2022-11-14T05:47:02.395Z,2.11
2022-11-14T05:49:53.467Z,2.14
2022-11-14T05:52:44.453Z,2.01
2022-11-14T05:55:35.379Z,2.01
2022-11-14T05:58:26.617Z,1.99
2022-11-14T06:01:19.354Z,2.04
2022-11-14T06:04:13.694Z,2.07
2022-11-14T06:07:04.783Z,2.12
2022-11-14T06:09:55.788Z,2.11
2022-11-14T06:12:47.352Z,2.13
2022-11-14T06:15:38.112Z,2.12
2022-11-14T06:18:31.105Z,2.13
2022-11-14T06:21:24.592Z,2.12
2022-11-14T06:24:15.871Z,2.14
2022-11-14T06:27:06.668Z,2.24
2022-11-14T06:29:57.689Z,2.28
2022-11-14T06:32:48.580Z,2.34
2022-11-14T06:35:39.584Z,2.33
2022-11-14T06:38:32.533Z,2.44
2022-11-14T06:41:23.994Z,2.52
2022-11-14T06:44:15.060Z,2.60
2022-11-14T06:47:06.041Z,2.68
2022-11-14T06:49:57.104Z,2.77
2022-11-14T06:52:48.294Z,2.85
2022-11-14T06:55:40.069Z,2.95
2022-11-14T06:58:33.530Z,3.04
2022-11-14T07:01:25.671Z,3.21
2022-11-14T07:04:16.668Z,3.33
2022-11-14T07:07:07.630Z,3.48
2022-11-14T07:09:58.715Z,3.60
2022-11-14T07:12:50.398Z,3.73
2022-11-14T07:15:49.578Z,3.84
2022-11-14T07:18:40.694Z,4.05
2022-11-14T07:21:33.644Z,4.22
2022-11-14T07:24:24.492Z,4.42
2022-11-14T07:27:15.464Z,4.66
2022-11-14T07:30:08.258Z,4.86
2022-11-14T07:32:59.781Z,5.06
2022-11-14T07:35:50.871Z,5.23
2022-11-14T07:38:41.886Z,5.30
2022-11-14T07:41:32.822Z,5.35
2022-11-14T07:44:23.728Z,5.68
2022-11-14T07:47:15.414Z,5.92
2022-11-14T07:50:07.622Z,6.12
2022-11-14T07:52:58.865Z,6.41
2022-11-14T07:55:50.024Z,6.51
2022-11-14T07:58:41.369Z,6.74
2022-11-14T08:01:32.670Z,6.89
2022-11-14T08:04:25.408Z,6.99
2022-11-14T08:07:16.610Z,7.21
2022-11-14T08:10:10.685Z,7.48
2022-11-14T08:13:30.277Z,7.56
2022-11-14T08:16:14.817Z,7.85
2022-11-14T08:19:06.240Z,7.94
2022-11-14T08:21:57.892Z,8.11
2022-11-14T08:24:48.578Z,8.37
2022-11-14T08:27:39.496Z,8.37
2022-11-14T08:30:30.542Z,8.46
2022-11-14T08:33:21.455Z,8.61
2022-11-14T08:36:12.570Z,8.73
2022-11-14T08:39:04.429Z,8.92
2022-11-14T08:41:55.511Z,9.02
2022-11-14T08:44:51.701Z,9.23
2022-11-14T08:47:42.773Z,9.38
2022-11-14T08:50:33.977Z,9.25
2022-11-14T08:53:24.994Z,9.57
2022-11-14T08:56:17.029Z,9.89
2022-11-14T08:59:08.257Z,10.12
2022-11-14T09:01:59.611Z,10.29
2022-11-14T09:04:50.776Z,10.60
2022-11-14T09:07:42.027Z,10.80
2022-11-14T09:10:33.528Z,10.99
2022-11-14T09:13:27.036Z,11.14
2022-11-14T09:16:18.365Z,11.45
2022-11-14T09:19:09.573Z,11.77
2022-11-14T09:22:00.653Z,11.96
2022-11-14T09:24:52.167Z,11.56
2022-11-14T09:27:43.352Z,11.68
2022-11-14T09:30:36.552Z,11.61
2022-11-14T09:33:27.744Z,11.57
2022-11-14T09:36:19.259Z,11.95
2022-11-14T09:39:10.275Z,12.14
2022-11-14T09:42:17.324Z,12.15
2022-11-14T09:45:12.010Z,12.24
2022-11-14T09:48:07.528Z,11.72
2022-11-14T09:51:07.754Z,12.11
2022-11-14T09:54:06.715Z,12.16
2022-11-14T09:56:57.858Z,12.25
2022-11-14T09:59:49.579Z,12.37
2022-11-14T10:02:53.998Z,12.35
2022-11-14T10:06:04.855Z,12.12
2022-11-14T10:09:21.511Z,11.94
2022-11-14T10:12:17.667Z,11.81
2022-11-14T10:15:16.456Z,11.72
2022-11-14T10:18:32.980Z,11.55
2022-11-14T10:21:46.521Z,11.53
2022-11-14T10:24:51.317Z,11.57
2022-11-14T10:27:55.342Z,11.50
2022-11-14T10:30:55.982Z,11.33
2022-11-14T10:33:54.046Z,11.30
2022-11-14T10:36:59.357Z,11.50
2022-11-14T10:39:52.456Z,11.77
2022-11-14T10:42:46.955Z,11.96
2022-11-14T10:45:44.363Z,12.15
2022-11-14T10:48:38.369Z,12.39
2022-11-14T10:51:35.522Z,12.43
2022-11-14T10:54:34.709Z,12.35
2022-11-14T10:57:32.364Z,12.41
2022-11-14T11:00:23.294Z,12.55
2022-11-14T11:03:14.376Z,12.69
2022-11-14T11:06:05.683Z,12.83
2022-11-14T11:09:15.157Z,12.82
2022-11-14T11:12:08.340Z,12.92
2022-11-14T11:15:14.898Z,13.01
2022-11-14T11:18:25.382Z,12.96
2022-11-14T11:21:18.146Z,13.30
2022-11-14T11:24:09.621Z,13.32
2022-11-14T11:27:19.972Z,13.35
2022-11-14T11:30:22.929Z,13.47
2022-11-14T11:33:22.844Z,13.59
2022-11-14T11:36:17.904Z,13.65
2022-11-14T11:39:19.618Z,13.63
2022-11-14T11:42:18.781Z,13.52
2022-11-14T11:45:16.859Z,13.61
2022-11-14T11:48:16.240Z,13.50
2022-11-14T11:51:15.633Z,13.54
2022-11-14T11:54:15.572Z,13.51
2022-11-14T11:57:21.237Z,13.60
2022-11-14T12:00:17.698Z,13.43
2022-11-14T12:03:13.425Z,13.34
2022-11-14T12:06:13.024Z,13.34
2022-11-14T12:09:14.514Z,13.14
2022-11-14T12:12:12.750Z,13.18
2022-11-14T12:15:17.617Z,13.21
2022-11-14T12:18:35.803Z,13.28
2022-11-14T12:21:41.240Z,13.21
2022-11-14T12:25:00.707Z,13.18
2022-11-14T12:28:09.956Z,12.83
2022-11-14T12:31:04.230Z,12.87
2022-11-14T12:34:01.279Z,12.82
2022-11-14T12:36:52.629Z,12.74
2022-11-14T12:39:56.379Z,12.53
2022-11-14T12:42:48.376Z,12.34
2022-11-14T12:46:00.259Z,12.24
2022-11-14T12:48:51.027Z,12.02
2022-11-14T12:51:51.081Z,11.94
2022-11-14T12:54:43.799Z,12.04
2022-11-14T12:57:50.051Z,11.91
2022-11-14T13:01:03.351Z,11.84
2022-11-14T13:04:17.878Z,11.82
2022-11-14T13:07:34.095Z,11.72
2022-11-14T13:10:30.225Z,11.81
2022-11-14T13:13:39.851Z,11.90
2022-11-14T13:16:55.048Z,12.01
2022-11-14T13:20:04.712Z,12.04
2022-11-14T13:22:56.638Z,12.28
2022-11-14T13:25:47.923Z,12.45
2022-11-14T13:28:47.416Z,12.62
2022-11-14T13:31:50.913Z,12.55
2022-11-14T13:34:49.591Z,12.70
2022-11-14T13:38:12.619Z,12.91
2022-11-14T13:41:24.177Z,12.81
2022-11-14T13:44:47.451Z,12.72
2022-11-14T13:48:05.990Z,12.68
2022-11-14T13:51:15.543Z,12.69
2022-11-14T13:54:17.917Z,12.73
2022-11-14T13:57:20.186Z,12.79
2022-11-14T14:00:19.604Z,12.72
2022-11-14T14:03:23.108Z,12.43
2022-11-14T14:06:35.073Z,12.25
2022-11-14T14:09:32.547Z,12.20
2022-11-14T14:12:50.348Z,12.38
2022-11-14T14:15:49.945Z,12.49
2022-11-14T14:18:44.598Z,12.58
2022-11-14T14:21:45.175Z,12.56
2022-11-14T14:24:51.228Z,12.53
2022-11-14T14:27:54.690Z,12.54
2022-11-14T14:31:11.879Z,12.38
2022-11-14T14:34:03.463Z,12.45
2022-11-14T14:36:56.366Z,12.52
2022-11-14T14:39:58.999Z,12.62
2022-11-14T14:42:51.478Z,12.60
2022-11-14T14:45:47.997Z,12.63
2022-11-14T14:48:41.826Z,12.55
2022-11-14T14:51:34.675Z,12.49
2022-11-14T14:54:28.735Z,12.37
2022-11-14T14:57:23.348Z,12.22
2022-11-14T15:00:20.136Z,12.08
2022-11-14T15:03:11.163Z,11.91
2022-11-14T15:06:04.571Z,11.80
2022-11-14T15:08:56.555Z,11.63
2022-11-14T15:11:51.810Z,11.53
2022-11-14T15:14:44.518Z,11.44
2022-11-14T15:17:36.081Z,11.35
2022-11-14T15:20:28.977Z,11.24
2022-11-14T15:23:20.784Z,11.07
2022-11-14T15:26:15.977Z,10.90
2022-11-14T15:29:17.325Z,10.77
2022-11-14T15:32:19.260Z,10.61
2022-11-14T15:35:25.459Z,10.57
2022-11-14T15:38:54.226Z,10.42
2022-11-14T15:41:32.966Z,10.17
2022-11-14T15:44:30.637Z,10.08
2022-11-14T15:47:24.853Z,9.94
2022-11-14T15:50:26.144Z,9.84
2022-11-14T15:53:22.824Z,9.76
2022-11-14T15:56:14.044Z,9.60
2022-11-14T15:59:05.332Z,9.49
2022-11-14T16:01:59.522Z,9.42
2022-11-14T16:04:52.667Z,9.33
2022-11-14T16:07:43.528Z,9.19
2022-11-14T16:10:34.579Z,9.12
2022-11-14T16:13:25.630Z,9.04
2022-11-14T16:16:16.653Z,8.97
2022-11-14T16:19:08.355Z,8.85
2022-11-14T16:22:02.033Z,8.73
2022-11-14T16:24:53.096Z,8.64
2022-11-14T16:27:43.942Z,8.57
2022-11-14T16:30:35.077Z,8.53
2022-11-14T16:33:26.219Z,8.49
2022-11-14T16:36:21.244Z,8.49
2022-11-14T16:39:13.474Z,8.44
2022-11-14T16:42:04.702Z,8.40
2022-11-14T16:45:00.304Z,8.40
2022-11-14T16:47:51.842Z,8.26
2022-11-14T16:50:43.030Z,8.21
2022-11-14T16:53:34.093Z,8.14
2022-11-14T16:56:25.877Z,8.10
2022-11-14T16:59:17.180Z,8.09
2022-11-14T17:02:13.538Z,7.97
2022-11-14T17:05:05.052Z,7.92
2022-11-14T17:07:56.152Z,7.86
2022-11-14T17:10:47.105Z,7.78
2022-11-14T17:13:39.186Z,7.80
2022-11-14T17:16:30.114Z,7.70
2022-11-14T17:19:21.406Z,7.64
2022-11-14T17:22:12.618Z,7.61
2022-11-14T17:25:03.674Z,7.54
2022-11-14T17:27:54.318Z,7.50
2022-11-14T17:30:46.057Z,7.46
2022-11-14T17:33:37.658Z,7.38
2022-11-14T17:36:30.601Z,7.29
2022-11-14T17:39:21.919Z,7.26
2022-11-14T17:42:13.117Z,7.17
2022-11-14T17:45:04.758Z,7.06
2022-11-14T17:47:56.522Z,6.95
2022-11-14T17:50:47.284Z,6.89
2022-11-14T17:53:38.804Z,6.70
2022-11-14T17:56:29.673Z,6.79
2022-11-14T17:59:21.115Z,6.69
2022-11-14T18:02:13.585Z,6.67
2022-11-14T18:05:06.679Z,6.61
2022-11-14T18:07:57.690Z,6.56
2022-11-14T18:10:48.746Z,6.52
2022-11-14T18:13:40.727Z,6.30
2022-11-14T18:16:50.825Z,6.26
2022-11-14T18:19:42.498Z,6.24
2022-11-14T18:22:34.294Z,6.21
2022-11-14T18:25:25.375Z,6.18
2022-11-14T18:28:16.400Z,6.18
2022-11-14T18:31:09.975Z,6.20
2022-11-14T18:34:02.210Z,6.11
2022-11-14T18:36:53.359Z,5.97
2022-11-14T18:39:45.036Z,5.93
2022-11-14T18:42:35.876Z,5.91
2022-11-14T18:45:26.699Z,5.83
2022-11-14T18:48:17.634Z,5.77
2022-11-14T18:51:11.710Z,5.73
2022-11-14T18:54:02.692Z,5.67
2022-11-14T18:56:54.250Z,5.64
2022-11-14T18:59:44.950Z,5.61
2022-11-14T19:02:36.465Z,5.61
2022-11-14T19:05:27.505Z,5.63
2022-11-14T19:08:18.583Z,5.53
2022-11-14T19:11:32.311Z,5.40
2022-11-14T19:14:23.855Z,5.42
2022-11-14T19:17:18.042Z,5.36
2022-11-14T19:20:14.406Z,5.38
2022-11-14T19:23:05.693Z,5.37
2022-11-14T19:25:59.332Z,5.26
2022-11-14T19:28:50.327Z,5.26
2022-11-14T19:31:42.910Z,5.19
2022-11-14T19:34:33.571Z,5.15
2022-11-14T19:37:24.616Z,5.07
2022-11-14T19:40:15.545Z,5.00
2022-11-14T19:43:08.374Z,4.99
2022-11-14T19:46:02.115Z,4.98
2022-11-14T19:48:55.961Z,4.96
2022-11-14T19:51:46.755Z,4.91
2022-11-14T19:54:37.920Z,4.90
2022-11-14T19:57:30.460Z,4.83
2022-11-14T20:00:24.159Z,4.83
2022-11-14T20:03:14.783Z,4.81
2022-11-14T20:06:14.181Z,4.72
2022-11-14T20:09:07.218Z,4.70
2022-11-14T20:11:58.285Z,4.68
2022-11-14T20:14:49.381Z,4.66
2022-11-14T20:17:40.537Z,4.56
2022-11-14T20:20:31.510Z,4.56
2022-11-14T20:23:23.331Z,4.49
2022-11-14T20:26:15.486Z,4.48
2022-11-14T20:29:07.189Z,4.43
2022-11-14T20:31:58.375Z,4.42
2022-11-14T20:34:49.407Z,4.38
2022-11-14T20:37:40.454Z,4.33
2022-11-14T20:40:33.141Z,4.29
2022-11-14T20:43:24.586Z,4.11
2022-11-14T20:46:17.225Z,4.16
2022-11-14T20:49:08.835Z,4.16
2022-11-14T20:52:01.083Z,4.08
2022-11-14T20:54:51.987Z,4.07
2022-11-14T20:57:43.846Z,4.06
2022-11-14T21:00:35.309Z,4.05
2022-11-14T21:03:24.427Z,4.08
2022-11-14T21:06:16.446Z,3.95
2022-11-14T21:09:08.961Z,3.93
2022-11-14T21:11:59.914Z,3.88
2022-11-14T21:14:51.464Z,3.88
2022-11-14T21:17:42.066Z,3.84
2022-11-14T21:20:32.990Z,3.78
2022-11-14T21:23:23.991Z,3.79
2022-11-14T21:26:16.442Z,3.80
2022-11-14T21:29:11.446Z,3.80
2022-11-14T21:32:03.229Z,3.72
2022-11-14T21:34:54.144Z,3.71
2022-11-14T21:37:44.984Z,3.67
2022-11-14T21:40:35.882Z,3.62
2022-11-14T21:43:26.531Z,3.60
2022-11-14T21:46:17.556Z,3.62
2022-11-14T21:49:09.722Z,3.64
2022-11-14T21:52:00.649Z,3.62
2022-11-14T21:54:51.506Z,3.62
2022-11-14T21:57:42.608Z,3.63
2022-11-14T22:00:33.515Z,3.61
2022-11-14T22:03:42.802Z,3.55
2022-11-14T22:06:34.616Z,3.51
2022-11-14T22:09:26.222Z,3.48
2022-11-14T22:12:17.553Z,3.47
2022-11-14T22:15:09.302Z,3.43
2022-11-14T22:18:00.329Z,3.42
2022-11-14T22:20:54.917Z,3.35
2022-11-14T22:23:46.672Z,3.28
2022-11-14T22:26:39.269Z,3.19
2022-11-14T22:29:30.306Z,3.20
2022-11-14T22:32:21.277Z,3.12
2022-11-14T22:35:12.423Z,3.17
2022-11-14T22:38:03.334Z,3.15
2022-11-14T22:40:56.194Z,3.13
2022-11-14T22:43:47.319Z,3.14
2022-11-14T22:46:38.395Z,3.09
2022-11-14T22:49:29.309Z,3.05
2022-11-14T22:52:20.210Z,3.05
2022-11-14T22:55:17.723Z,3.01
2022-11-14T22:58:09.697Z,3.01
2022-11-14T23:01:01.745Z,2.99
2022-11-14T23:03:54.563Z,2.94
2022-11-14T23:06:45.677Z,2.91
2022-11-14T23:09:36.506Z,2.91
2022-11-14T23:12:27.574Z,2.86
2022-11-14T23:15:19.293Z,2.79
2022-11-14T23:18:10.202Z,2.78
2022-11-14T23:21:04.086Z,2.79
2022-11-14T23:23:56.587Z,2.74
2022-11-14T23:26:47.632Z,2.76
2022-11-14T23:29:38.362Z,2.71
2022-11-14T23:32:30.413Z,2.66
2022-11-14T23:35:21.414Z,2.66
2022-11-14T23:38:13.003Z,2.63
2022-11-14T23:41:03.990Z,2.60
2022-11-14T23:43:54.981Z,2.50
2022-11-14T23:46:46.062Z,2.54
2022-11-14T23:49:37.769Z,2.58
2022-11-14T23:52:28.547Z,2.55
2022-11-14T23:55:19.676Z,2.49
2022-11-14T23:58:10.766Z,2.41
